Overview Statistics Trail Chart Weather Telemetry Raw packets
 

This is the latest recevied weather packets stored in our database for station/object WX5II-15. If no packets are shown the sender has not sent any weather packets the latest 10 day(s).

<< 53 54 55 56 57 58 >>
Time Temp. Humidity Pressure Rain* Wind** Luminosity Snow
1787755983 31.11° C 64% 1008.8 hPa 0 mm - - -
1787755478 30.56° C 67% 1008.4 hPa 0 mm - - -
1787755381 30.56° C 67% 1008.4 hPa 0 mm - - -
1787754782 30.56° C 68% 1008.4 hPa 0 mm - - -
1787753618 28.89° C 73% 1008.1 hPa 0 mm - - -
1787753579 28.89° C 73% 1008.1 hPa 0 mm - - -
1787752979 28.89° C 74% 1008.1 hPa 0 mm - - -
1787751778 27.78° C 76% 1007.4 hPa 0 mm - - -
1787751177 27.22° C 78% 1007.4 hPa 0 mm - - -
1787750577 26.67° C 80% 1007.7 hPa 0 mm - - -
1787749976 26.11° C 82% 1007.7 hPa 0 mm - - -
1787749375 25.56° C 82% 1007.4 hPa 0 mm - - -
1787748775 25° C 82% 1007.7 hPa 0 mm - - -
1787748175 25° C 82% 1007.4 hPa 0 mm - - -
1787747574 24.44° C 82% 1007.4 hPa 0 mm - - -
1787746973 24.44° C 82% 1007.1 hPa 0 mm - - -
1787746374 24.44° C - - 0 mm - - -
1787746373 24.44° C 82% 1007.1 hPa 0 mm - - -
1787745775 25° C 82% 1007.1 hPa 0 mm - - -
1787745172 25° C 82% 1006.7 hPa 0 mm - - -
1787744571 25° C 82% 1006.7 hPa 0 mm - - -
1787743971 25° C 82% 1006.7 hPa 0 mm - - -
1787743370 25° C 82% 1006.7 hPa 0 mm - - -
1787742770 25° C 81% 1006.7 hPa 0 mm - - -
1787742169 25° C 81% 1006.7 hPa 0 mm - - -

* Rain latest hour (hover to see other rain measurements)
** Current wind speed in m/s (hover to see current wind gust speed)